createdAt,value
2019-03-08T00:00:34.050Z,58.35
2019-03-08T00:01:43.783Z,58.47
2019-03-08T00:02:50.789Z,59.24
2019-03-08T00:03:58.481Z,59.29
2019-03-08T00:05:06.458Z,60.02
2019-03-08T00:06:13.731Z,60.46
2019-03-08T00:07:22.381Z,61.00
2019-03-08T00:08:30.520Z,61.23
2019-03-08T00:09:37.534Z,61.27
2019-03-08T00:10:45.032Z,61.59
2019-03-08T00:11:52.199Z,62.20
2019-03-08T00:13:00.232Z,63.65
2019-03-08T00:14:07.090Z,64.94
2019-03-08T00:15:14.679Z,64.47
2019-03-08T00:16:22.176Z,63.56
2019-03-08T00:17:28.429Z,62.03
2019-03-08T00:18:34.674Z,59.55
2019-03-08T00:19:42.953Z,57.36
2019-03-08T00:20:50.877Z,55.39
2019-03-08T00:21:59.287Z,54.68
2019-03-08T00:23:07.326Z,54.64
2019-03-08T00:24:13.594Z,54.86
2019-03-08T00:25:20.608Z,55.51
2019-03-08T00:26:27.636Z,56.31
2019-03-08T00:27:36.080Z,56.49
2019-03-08T00:28:43.425Z,57.11
2019-03-08T00:29:50.502Z,57.50
2019-03-08T00:30:58.809Z,58.16
2019-03-08T00:32:05.898Z,58.66
2019-03-08T00:33:13.863Z,59.20
2019-03-08T00:34:20.293Z,60.06
2019-03-08T00:35:29.142Z,60.12
2019-03-08T00:36:38.491Z,61.00
2019-03-08T00:37:45.858Z,61.58
2019-03-08T00:38:54.043Z,62.13
2019-03-08T00:40:01.494Z,64.08
2019-03-08T00:41:08.999Z,66.00
2019-03-08T00:42:15.839Z,65.73
2019-03-08T00:43:22.785Z,63.98
2019-03-08T00:44:29.835Z,63.46
2019-03-08T00:45:38.550Z,61.26
2019-03-08T00:46:46.038Z,59.98
2019-03-08T00:47:54.102Z,57.42
2019-03-08T00:49:01.099Z,55.51
2019-03-08T00:50:10.529Z,54.89
2019-03-08T00:51:17.672Z,55.24
2019-03-08T00:52:23.745Z,56.43
2019-03-08T00:53:30.840Z,56.74
2019-03-08T00:54:40.879Z,57.49
2019-03-08T00:55:47.513Z,58.32
2019-03-08T00:56:54.600Z,59.42
2019-03-08T00:58:02.101Z,59.91
2019-03-08T00:59:09.236Z,61.04
2019-03-08T01:00:19.874Z,62.17
2019-03-08T01:01:27.858Z,63.84
2019-03-08T01:02:35.946Z,66.01
2019-03-08T01:03:42.676Z,65.55
2019-03-08T01:04:49.852Z,64.37
2019-03-08T01:05:56.638Z,62.63
2019-03-08T01:07:04.254Z,61.04
2019-03-08T01:08:11.143Z,59.74
2019-03-08T01:09:18.360Z,57.79
2019-03-08T01:10:27.733Z,56.92
2019-03-08T01:11:42.851Z,56.80
2019-03-08T01:12:49.768Z,57.34
2019-03-08T01:13:56.695Z,57.76
2019-03-08T01:15:04.320Z,58.53
2019-03-08T01:16:11.068Z,59.15
2019-03-08T01:17:18.334Z,60.16
2019-03-08T01:18:27.127Z,60.75
2019-03-08T01:19:34.316Z,61.75
2019-03-08T01:20:41.250Z,62.56
2019-03-08T01:21:48.239Z,64.70
2019-03-08T01:22:55.267Z,66.04
2019-03-08T01:24:01.786Z,66.14
2019-03-08T01:25:09.640Z,64.79
2019-03-08T01:26:18.822Z,63.31
2019-03-08T01:27:47.478Z,61.61
2019-03-08T01:28:55.045Z,59.28
2019-03-08T01:30:01.522Z,57.96
2019-03-08T01:31:08.774Z,56.63
2019-03-08T01:32:17.039Z,56.55
2019-03-08T01:33:23.784Z,57.36
2019-03-08T01:34:32.080Z,57.56
2019-03-08T01:35:39.774Z,58.49
2019-03-08T01:36:46.672Z,59.45
2019-03-08T01:37:54.089Z,59.84
2019-03-08T01:39:01.072Z,60.69
2019-03-08T01:40:10.934Z,61.50
2019-03-08T01:41:17.000Z,62.19
2019-03-08T01:42:24.384Z,64.04
2019-03-08T01:43:31.222Z,66.05
2019-03-08T01:44:38.869Z,65.83
2019-03-08T01:45:46.209Z,64.53
2019-03-08T01:46:52.977Z,62.66
2019-03-08T01:48:00.777Z,61.39
2019-03-08T01:49:09.935Z,60.32
2019-03-08T01:50:17.240Z,59.30
2019-03-08T01:51:25.769Z,57.57
2019-03-08T01:52:34.507Z,56.09
2019-03-08T01:53:41.710Z,56.17
2019-03-08T01:54:49.581Z,56.71
2019-03-08T01:55:56.740Z,57.58
2019-03-08T01:57:04.389Z,58.39
2019-03-08T01:58:11.771Z,59.20
2019-03-08T01:59:19.433Z,59.50
2019-03-08T02:00:27.041Z,60.54
2019-03-08T02:01:33.700Z,61.37
2019-03-08T02:02:41.088Z,62.70
2019-03-08T02:03:49.653Z,63.60
2019-03-08T02:04:56.726Z,65.90
2019-03-08T02:06:04.293Z,65.70
2019-03-08T02:07:11.392Z,64.32
2019-03-08T02:08:20.485Z,62.37
2019-03-08T02:09:29.846Z,61.96
2019-03-08T02:10:37.186Z,60.77
2019-03-08T02:11:45.094Z,59.62
2019-03-08T02:12:52.785Z,57.83
2019-03-08T02:14:02.978Z,56.45
2019-03-08T02:15:14.784Z,56.35
2019-03-08T02:16:21.610Z,56.84
2019-03-08T02:17:29.472Z,57.57
2019-03-08T02:18:37.354Z,58.50
2019-03-08T02:19:44.042Z,59.08
2019-03-08T02:20:52.338Z,59.93
2019-03-08T02:21:59.040Z,60.76
2019-03-08T02:23:08.112Z,61.24
2019-03-08T02:24:15.293Z,61.84
2019-03-08T02:25:23.055Z,64.16
2019-03-08T02:26:29.975Z,65.77
2019-03-08T02:27:37.643Z,66.02
2019-03-08T02:28:44.633Z,64.22
2019-03-08T02:29:53.509Z,63.02
2019-03-08T02:31:00.975Z,61.38
2019-03-08T02:32:08.421Z,60.48
2019-03-08T02:33:15.895Z,59.48
2019-03-08T02:34:23.620Z,58.05
2019-03-08T02:35:32.578Z,56.85
2019-03-08T02:36:39.782Z,56.77
2019-03-08T02:37:49.076Z,57.30
2019-03-08T02:38:56.367Z,57.97
2019-03-08T02:40:03.823Z,58.79
2019-03-08T02:41:12.135Z,59.38
2019-03-08T02:42:20.547Z,60.52
2019-03-08T02:43:29.058Z,61.03
2019-03-08T02:44:35.821Z,61.65
2019-03-08T02:45:42.802Z,62.25
2019-03-08T02:46:49.992Z,64.38
2019-03-08T02:47:57.422Z,66.35
2019-03-08T02:49:06.330Z,65.62
2019-03-08T02:50:13.000Z,64.31
2019-03-08T02:51:20.018Z,62.63
2019-03-08T02:52:28.582Z,60.70
2019-03-08T02:53:35.892Z,59.72
2019-03-08T02:54:43.193Z,57.73
2019-03-08T02:55:51.168Z,56.41
2019-03-08T02:56:59.530Z,56.26
2019-03-08T02:58:32.782Z,56.64
2019-03-08T02:59:39.486Z,57.19
2019-03-08T03:00:46.704Z,58.21
2019-03-08T03:01:53.550Z,58.66
2019-03-08T03:03:02.715Z,59.86
2019-03-08T03:04:09.702Z,60.52
2019-03-08T03:05:38.275Z,61.05
2019-03-08T03:06:45.543Z,61.69
2019-03-08T03:07:54.216Z,62.67
2019-03-08T03:09:01.811Z,65.08
2019-03-08T03:10:12.909Z,67.05
2019-03-08T03:11:20.119Z,65.55
2019-03-08T03:12:27.647Z,64.34
2019-03-08T03:13:34.759Z,62.86
2019-03-08T03:14:43.357Z,61.15
2019-03-08T03:15:50.055Z,59.86
2019-03-08T03:16:57.798Z,58.02
2019-03-08T03:18:04.430Z,56.67
2019-03-08T03:19:13.011Z,56.98
2019-03-08T03:20:22.722Z,56.98
2019-03-08T03:21:29.840Z,57.35
2019-03-08T03:22:36.567Z,58.68
2019-03-08T03:23:44.203Z,59.15
2019-03-08T03:24:50.889Z,59.65
2019-03-08T03:25:57.918Z,60.61
2019-03-08T03:27:04.949Z,61.60
2019-03-08T03:28:12.220Z,61.73
2019-03-08T03:29:19.434Z,61.91
2019-03-08T03:30:27.622Z,64.60
2019-03-08T03:31:34.337Z,65.65
2019-03-08T03:32:41.185Z,65.98
2019-03-08T03:33:48.361Z,64.57
2019-03-08T03:34:55.923Z,62.88
2019-03-08T03:36:03.218Z,61.88
2019-03-08T03:37:10.534Z,60.32
2019-03-08T03:38:17.086Z,59.42
2019-03-08T03:39:24.438Z,57.67
2019-03-08T03:40:51.736Z,56.54
2019-03-08T03:42:00.000Z,56.28
2019-03-08T03:43:07.522Z,57.11
2019-03-08T03:44:14.490Z,57.77
2019-03-08T03:45:24.242Z,58.22
2019-03-08T03:46:35.062Z,59.42
2019-03-08T03:47:43.268Z,59.91
2019-03-08T03:48:50.619Z,61.14
2019-03-08T03:49:59.362Z,61.39
2019-03-08T03:51:06.168Z,62.92
2019-03-08T03:52:13.015Z,64.41
2019-03-08T03:53:20.081Z,65.92
2019-03-08T03:54:28.221Z,65.83
2019-03-08T03:55:35.758Z,64.10
2019-03-08T03:56:43.406Z,62.07
2019-03-08T03:57:51.378Z,61.35
2019-03-08T03:58:59.202Z,60.18
2019-03-08T04:00:11.791Z,59.05
2019-03-08T04:01:22.372Z,57.33
2019-03-08T04:02:29.702Z,56.25
2019-03-08T04:03:35.951Z,56.20
2019-03-08T04:04:42.918Z,56.71
2019-03-08T04:05:50.123Z,57.69
2019-03-08T04:06:58.079Z,58.68
2019-03-08T04:08:06.205Z,59.31
2019-03-08T04:09:42.290Z,59.47
2019-03-08T04:11:14.229Z,60.76
2019-03-08T04:12:39.540Z,61.66
2019-03-08T04:13:59.831Z,63.25
2019-03-08T04:15:11.684Z,65.35
2019-03-08T04:16:19.234Z,67.24
2019-03-08T04:17:26.020Z,66.35
2019-03-08T04:18:32.883Z,64.16
2019-03-08T04:19:40.165Z,62.91
2019-03-08T04:20:47.965Z,61.78
2019-03-08T04:21:56.253Z,60.08
2019-03-08T04:23:06.051Z,59.62
2019-03-08T04:24:12.692Z,58.03
2019-03-08T04:25:19.701Z,57.18
2019-03-08T04:26:26.338Z,56.79
2019-03-08T04:27:37.874Z,57.21
2019-03-08T04:28:45.329Z,57.65
2019-03-08T04:29:56.602Z,59.16
2019-03-08T04:31:04.149Z,60.05
2019-03-08T04:32:12.099Z,60.51
2019-03-08T04:33:20.368Z,61.60
2019-03-08T04:34:28.051Z,62.32
2019-03-08T04:35:35.946Z,64.27
2019-03-08T04:36:43.306Z,66.61
2019-03-08T04:37:50.569Z,66.24
2019-03-08T04:38:57.271Z,64.66
2019-03-08T04:40:05.852Z,61.88
2019-03-08T04:41:12.833Z,61.68
2019-03-08T04:42:19.274Z,60.34
2019-03-08T04:43:27.360Z,58.85
2019-03-08T04:44:34.096Z,57.20
2019-03-08T04:45:41.401Z,55.60
2019-03-08T04:46:48.946Z,55.77
2019-03-08T04:47:55.998Z,56.18
2019-03-08T04:49:02.687Z,56.84
2019-03-08T04:50:16.281Z,57.60
2019-03-08T04:51:22.876Z,58.45
2019-03-08T04:52:29.217Z,59.77
2019-03-08T04:53:36.719Z,61.07
2019-03-08T04:54:45.469Z,61.92
2019-03-08T04:55:52.566Z,62.41
2019-03-08T04:56:59.756Z,64.27
2019-03-08T04:58:07.012Z,66.02
2019-03-08T04:59:14.425Z,65.61
2019-03-08T05:00:22.317Z,64.03
2019-03-08T05:01:29.275Z,63.02
2019-03-08T05:02:36.533Z,61.24
2019-03-08T05:03:45.104Z,60.63
2019-03-08T05:04:51.649Z,58.85
2019-03-08T05:06:00.758Z,56.57
2019-03-08T05:07:07.342Z,55.64
2019-03-08T05:08:14.216Z,55.49
2019-03-08T05:09:21.507Z,56.17
2019-03-08T05:10:27.920Z,57.41
2019-03-08T05:11:34.418Z,58.28
2019-03-08T05:12:41.786Z,59.49
2019-03-08T05:13:48.781Z,59.65
2019-03-08T05:15:06.338Z,60.62
2019-03-08T05:16:13.306Z,61.15
2019-03-08T05:17:21.959Z,62.44
2019-03-08T05:18:30.603Z,63.35
2019-03-08T05:19:38.979Z,65.62
2019-03-08T05:20:46.209Z,65.44
2019-03-08T05:22:13.671Z,64.65
2019-03-08T05:23:20.288Z,63.15
2019-03-08T05:24:29.653Z,60.97
2019-03-08T05:25:36.568Z,59.99
2019-03-08T05:26:43.208Z,58.14
2019-03-08T05:27:49.947Z,56.50
2019-03-08T05:28:57.404Z,56.53
2019-03-08T05:30:07.617Z,56.98
2019-03-08T05:31:16.108Z,57.77
2019-03-08T05:32:23.004Z,58.67
2019-03-08T05:33:30.097Z,58.99
2019-03-08T05:34:37.108Z,59.78
2019-03-08T05:35:58.029Z,61.30
2019-03-08T05:37:05.631Z,60.97
2019-03-08T05:38:12.973Z,62.55
2019-03-08T05:39:20.460Z,64.49
2019-03-08T05:40:27.371Z,65.50
2019-03-08T05:41:34.381Z,65.73
2019-03-08T05:42:41.643Z,64.58
2019-03-08T05:43:48.448Z,62.39
2019-03-08T05:44:56.774Z,61.50
2019-03-08T05:46:03.738Z,59.63
2019-03-08T05:47:10.951Z,58.26
2019-03-08T05:48:19.302Z,56.88
2019-03-08T05:49:26.764Z,56.51
2019-03-08T05:50:35.064Z,57.31
2019-03-08T05:51:43.531Z,58.10
2019-03-08T05:52:50.472Z,58.64
2019-03-08T05:53:58.789Z,59.22
2019-03-08T05:55:08.284Z,59.97
2019-03-08T05:56:15.207Z,60.99
2019-03-08T05:57:23.606Z,61.47
2019-03-08T05:58:30.333Z,62.16
2019-03-08T05:59:37.620Z,62.94
2019-03-08T06:00:45.731Z,64.58
2019-03-08T06:01:53.162Z,65.93
2019-03-08T06:03:01.471Z,65.43
2019-03-08T06:04:10.100Z,63.23
2019-03-08T06:05:17.262Z,61.39
2019-03-08T06:06:26.484Z,60.14
2019-03-08T06:07:33.645Z,59.14
2019-03-08T06:08:40.807Z,57.15
2019-03-08T06:09:48.049Z,55.57
2019-03-08T06:10:54.245Z,55.53
2019-03-08T06:12:05.254Z,55.28
2019-03-08T06:13:12.267Z,55.88
2019-03-08T06:14:19.432Z,57.77
2019-03-08T06:15:26.697Z,56.67
2019-03-08T06:16:34.497Z,56.80
2019-03-08T06:17:42.865Z,57.94
2019-03-08T06:18:50.722Z,58.24
2019-03-08T06:19:59.226Z,58.79
2019-03-08T06:21:06.061Z,59.20
2019-03-08T06:22:14.745Z,59.73
2019-03-08T06:23:21.908Z,60.49
2019-03-08T06:24:29.405Z,60.34
2019-03-08T06:25:36.887Z,61.33
2019-03-08T06:26:45.415Z,61.18
2019-03-08T06:27:51.706Z,61.60
2019-03-08T06:29:01.116Z,62.08
2019-03-08T06:30:11.643Z,62.13
2019-03-08T06:31:18.845Z,63.33
2019-03-08T06:32:25.499Z,64.34
2019-03-08T06:33:33.897Z,63.72
2019-03-08T06:34:41.287Z,60.56
2019-03-08T06:35:49.408Z,58.03
2019-03-08T06:36:56.151Z,55.33
2019-03-08T06:38:03.619Z,53.74
2019-03-08T06:39:10.466Z,53.04
2019-03-08T06:40:18.595Z,53.67
2019-03-08T06:41:35.720Z,54.28
2019-03-08T06:42:37.929Z,54.87
2019-03-08T06:43:48.372Z,55.26
2019-03-08T06:44:55.980Z,56.27
2019-03-08T06:46:03.989Z,56.88
2019-03-08T06:47:11.699Z,57.14
2019-03-08T06:48:20.006Z,57.60
2019-03-08T06:49:27.020Z,57.17
2019-03-08T06:50:33.609Z,58.30
2019-03-08T06:51:40.257Z,59.09
2019-03-08T06:52:47.269Z,58.18
2019-03-08T06:53:53.446Z,59.36
2019-03-08T06:55:01.300Z,59.44
2019-03-08T06:56:55.387Z,59.79
2019-03-08T06:58:07.035Z,60.23
2019-03-08T06:59:31.754Z,60.48
2019-03-08T07:00:43.665Z,61.17
2019-03-08T07:01:50.168Z,61.48
2019-03-08T07:02:57.998Z,61.72
2019-03-08T07:04:04.680Z,62.15
2019-03-08T07:05:12.078Z,62.86
2019-03-08T07:06:18.634Z,64.00
2019-03-08T07:07:26.497Z,63.72
2019-03-08T07:08:34.700Z,63.50
2019-03-08T07:09:42.286Z,61.77
2019-03-08T07:10:49.616Z,60.07
2019-03-08T07:11:56.905Z,57.53
2019-03-08T07:13:04.082Z,55.90
2019-03-08T07:14:11.670Z,55.13
2019-03-08T07:15:20.999Z,54.88
2019-03-08T07:16:27.387Z,56.26
2019-03-08T07:17:34.400Z,56.03
2019-03-08T07:18:41.095Z,56.49
2019-03-08T07:19:49.265Z,57.02
2019-03-08T07:20:57.938Z,57.98
2019-03-08T07:22:06.787Z,58.59
2019-03-08T07:23:28.555Z,58.74
2019-03-08T07:24:49.189Z,58.81
2019-03-08T07:26:14.285Z,59.83
2019-03-08T07:27:25.801Z,59.83
2019-03-08T07:28:39.506Z,60.77
2019-03-08T07:29:46.241Z,60.77
2019-03-08T07:31:10.330Z,60.59
2019-03-08T07:32:29.276Z,60.56
2019-03-08T07:33:38.688Z,61.43
2019-03-08T07:34:49.389Z,61.17
2019-03-08T07:36:01.037Z,61.51
2019-03-08T07:37:09.119Z,60.94
2019-03-08T07:38:27.119Z,61.23
2019-03-08T07:39:51.339Z,60.61
2019-03-08T07:41:03.226Z,61.01
2019-03-08T07:42:21.683Z,60.73
2019-03-08T07:43:39.991Z,60.42
2019-03-08T07:44:54.599Z,59.24
2019-03-08T07:46:12.667Z,59.49
2019-03-08T07:47:38.256Z,59.36
2019-03-08T07:48:51.710Z,59.04
2019-03-08T07:50:03.418Z,59.17
2019-03-08T07:51:17.819Z,59.06
2019-03-08T07:52:33.198Z,59.36
2019-03-08T07:53:44.278Z,58.16
2019-03-08T07:54:58.641Z,58.18
2019-03-08T07:56:06.334Z,57.22
2019-03-08T07:57:31.169Z,57.50
2019-03-08T07:58:47.617Z,57.47
2019-03-08T08:00:33.146Z,57.28
2019-03-08T08:01:45.267Z,57.68
2019-03-08T08:03:10.810Z,56.93
2019-03-08T08:04:19.144Z,56.89
2019-03-08T08:05:27.385Z,57.03
2019-03-08T08:06:47.925Z,57.53
2019-03-08T08:07:56.019Z,56.95
2019-03-08T08:09:07.667Z,56.88
2019-03-08T08:10:19.229Z,56.63
2019-03-08T08:11:45.438Z,57.05
2019-03-08T08:13:11.727Z,57.42
2019-03-08T08:14:20.416Z,57.02
2019-03-08T08:15:28.837Z,57.29
2019-03-08T08:16:51.879Z,57.30
2019-03-08T08:18:02.785Z,57.12
2019-03-08T08:19:26.305Z,57.09
2019-03-08T08:20:37.269Z,57.16
2019-03-08T08:22:01.797Z,56.82
2019-03-08T08:23:10.626Z,56.93
2019-03-08T08:24:22.029Z,57.13
2019-03-08T08:25:36.709Z,56.67
2019-03-08T08:28:10.206Z,56.37
2019-03-08T08:29:35.223Z,56.59
2019-03-08T08:30:43.969Z,56.83
2019-03-08T08:32:00.849Z,56.51
2019-03-08T08:33:09.699Z,56.78
2019-03-08T08:34:17.994Z,56.45
2019-03-08T08:35:28.679Z,56.04
2019-03-08T08:36:42.345Z,55.54
2019-03-08T08:37:53.089Z,55.46
2019-03-08T08:39:00.988Z,55.89
2019-03-08T08:40:27.760Z,55.22
2019-03-08T08:41:44.748Z,55.64
2019-03-08T08:42:54.167Z,55.38
2019-03-08T08:44:14.952Z,54.83
2019-03-08T08:45:26.469Z,54.48
2019-03-08T08:46:44.140Z,54.44
2019-03-08T08:47:50.170Z,54.34
2019-03-08T08:49:16.158Z,54.45
2019-03-08T08:50:40.089Z,55.20
2019-03-08T08:51:59.242Z,55.09
2019-03-08T08:53:23.217Z,54.98
2019-03-08T08:54:36.327Z,54.87
2019-03-08T08:55:47.210Z,54.89
2019-03-08T08:56:54.749Z,54.79
2019-03-08T08:58:17.380Z,55.38
2019-03-08T08:59:25.287Z,55.06
2019-03-08T09:00:37.427Z,55.14
2019-03-08T09:01:59.192Z,54.81
2019-03-08T09:03:21.919Z,55.25
2019-03-08T09:04:36.470Z,54.95
2019-03-08T09:05:44.367Z,55.34
2019-03-08T09:06:52.400Z,55.21
2019-03-08T09:08:00.540Z,55.65
2019-03-08T09:09:19.450Z,55.68
2019-03-08T09:10:43.908Z,55.14
2019-03-08T09:11:53.124Z,55.84
2019-03-08T09:13:13.029Z,55.57
2019-03-08T09:14:33.471Z,55.46
2019-03-08T09:15:47.650Z,55.06
2019-03-08T09:16:55.330Z,55.70
2019-03-08T09:18:01.651Z,55.39
2019-03-08T09:19:09.985Z,55.44
2019-03-08T09:20:24.723Z,54.92
2019-03-08T09:21:33.742Z,55.38
2019-03-08T09:22:48.212Z,55.44
2019-03-08T09:23:58.402Z,55.07
2019-03-08T09:25:24.132Z,54.58
2019-03-08T09:26:48.988Z,54.13
2019-03-08T09:28:04.078Z,55.26
2019-03-08T09:29:11.673Z,54.35
2019-03-08T09:30:25.172Z,54.58
2019-03-08T09:31:31.029Z,54.15
2019-03-08T09:32:45.477Z,54.96
2019-03-08T09:34:04.101Z,54.19
2019-03-08T09:35:18.151Z,53.87
2019-03-08T09:36:27.479Z,54.50
2019-03-08T09:37:41.930Z,54.50
2019-03-08T09:38:50.897Z,54.58
2019-03-08T09:39:56.471Z,53.55
2019-03-08T09:41:14.713Z,54.20
2019-03-08T09:42:28.113Z,54.71
2019-03-08T09:43:38.768Z,55.00
2019-03-08T09:45:02.843Z,53.67
2019-03-08T09:46:27.797Z,54.35
2019-03-08T09:47:41.659Z,54.34
2019-03-08T09:48:54.108Z,54.17
2019-03-08T09:50:11.941Z,53.57
2019-03-08T09:51:31.960Z,53.81
2019-03-08T09:52:42.413Z,53.93
2019-03-08T09:53:56.253Z,53.67
2019-03-08T09:55:10.134Z,54.52
2019-03-08T09:56:26.984Z,55.07
2019-03-08T09:57:35.491Z,54.70
2019-03-08T09:58:56.131Z,54.81
2019-03-08T10:00:06.892Z,54.61
2019-03-08T10:01:30.684Z,55.54
2019-03-08T10:02:47.503Z,55.83
2019-03-08T10:03:59.743Z,56.09
2019-03-08T10:05:08.461Z,56.01
2019-03-08T10:06:25.194Z,56.55
2019-03-08T10:07:36.517Z,57.04
2019-03-08T10:08:45.431Z,57.33
2019-03-08T10:09:52.276Z,57.87
2019-03-08T10:11:02.092Z,57.77
2019-03-08T10:12:15.831Z,57.84
2019-03-08T10:13:25.612Z,57.95
2019-03-08T10:14:52.172Z,57.59
2019-03-08T10:16:01.084Z,57.21
2019-03-08T10:17:21.486Z,56.81
2019-03-08T10:18:33.675Z,57.67
2019-03-08T10:19:48.916Z,57.61
2019-03-08T10:21:00.354Z,57.88
2019-03-08T10:22:14.350Z,58.57
2019-03-08T10:23:35.779Z,58.83
2019-03-08T10:24:44.925Z,59.35
2019-03-08T10:26:09.156Z,58.98
2019-03-08T10:27:38.149Z,60.13
2019-03-08T10:28:40.252Z,60.19
2019-03-08T10:29:50.704Z,60.56
2019-03-08T10:31:14.314Z,61.38
2019-03-08T10:32:23.835Z,62.26
2019-03-08T10:33:30.795Z,63.80
2019-03-08T10:34:37.234Z,64.67
2019-03-08T10:35:44.832Z,64.02
2019-03-08T10:36:58.181Z,63.46
2019-03-08T10:38:22.746Z,61.79
2019-03-08T10:39:31.062Z,61.25
2019-03-08T10:40:44.669Z,60.12
2019-03-08T10:41:54.185Z,57.89
2019-03-08T10:43:02.235Z,57.52
2019-03-08T10:44:12.955Z,57.74
2019-03-08T10:45:25.643Z,57.51
2019-03-08T10:46:35.795Z,57.34
2019-03-08T10:47:59.731Z,58.34
2019-03-08T10:49:17.464Z,58.66
2019-03-08T10:50:32.152Z,60.99
2019-03-08T10:51:45.682Z,61.89
2019-03-08T10:52:53.266Z,62.37
2019-03-08T10:54:18.342Z,63.73
2019-03-08T10:55:32.116Z,64.42
2019-03-08T10:56:43.608Z,64.05
2019-03-08T10:58:01.584Z,62.59
2019-03-08T10:59:18.216Z,60.67
2019-03-08T11:00:50.118Z,59.13
2019-03-08T11:02:03.029Z,56.66
2019-03-08T11:03:17.584Z,56.81
2019-03-08T11:04:32.572Z,57.46
2019-03-08T11:05:47.865Z,58.19
2019-03-08T11:06:55.803Z,58.06
2019-03-08T11:08:06.273Z,59.05
2019-03-08T11:09:24.056Z,59.48
2019-03-08T11:10:32.466Z,60.30
2019-03-08T11:11:47.436Z,60.85
2019-03-08T11:12:52.855Z,61.45
2019-03-08T11:14:06.086Z,61.85
2019-03-08T11:15:31.386Z,63.67
2019-03-08T11:16:52.124Z,63.78
2019-03-08T11:18:16.139Z,63.36
2019-03-08T11:19:27.985Z,61.73
2019-03-08T11:20:51.383Z,59.47
2019-03-08T11:22:14.916Z,57.45
2019-03-08T11:23:38.268Z,56.73
2019-03-08T11:24:50.227Z,56.77
2019-03-08T11:26:05.256Z,56.98
2019-03-08T11:27:20.196Z,57.36
2019-03-08T11:28:28.374Z,58.12
2019-03-08T11:29:41.315Z,58.91
2019-03-08T11:30:54.020Z,59.15
2019-03-08T11:32:01.386Z,59.33
2019-03-08T11:33:19.626Z,60.71
2019-03-08T11:34:33.954Z,60.85
2019-03-08T11:35:50.657Z,62.24
2019-03-08T11:37:11.286Z,63.83
2019-03-08T11:38:31.344Z,62.98
2019-03-08T11:39:48.543Z,62.03
2019-03-08T11:40:57.175Z,59.84
2019-03-08T11:42:14.373Z,56.29
2019-03-08T11:43:28.395Z,55.41
2019-03-08T11:44:34.365Z,55.36
2019-03-08T11:45:43.492Z,55.43
2019-03-08T11:46:53.724Z,55.15
2019-03-08T11:48:07.147Z,55.81
2019-03-08T11:49:16.416Z,56.19
2019-03-08T11:50:41.908Z,57.34
2019-03-08T11:51:55.468Z,58.50
2019-03-08T11:53:19.697Z,58.77
2019-03-08T11:54:29.700Z,59.04
2019-03-08T11:55:39.027Z,59.60
2019-03-08T11:56:55.699Z,59.86
2019-03-08T11:58:08.434Z,60.45
2019-03-08T11:59:16.775Z,60.97
2019-03-08T12:00:25.887Z,60.51
2019-03-08T12:01:50.036Z,60.54
2019-03-08T12:03:05.396Z,60.31
2019-03-08T12:04:31.689Z,60.76
2019-03-08T12:05:40.519Z,60.80
2019-03-08T12:07:00.915Z,61.58
2019-03-08T12:08:12.487Z,61.01
2019-03-08T12:09:20.856Z,61.76
2019-03-08T12:10:34.744Z,62.02
2019-03-08T12:11:44.448Z,62.16
2019-03-08T12:13:01.768Z,62.29
2019-03-08T12:14:12.348Z,61.86
2019-03-08T12:15:32.955Z,59.56
2019-03-08T12:16:57.737Z,57.54
2019-03-08T12:18:11.336Z,56.53
2019-03-08T12:19:17.575Z,55.07
2019-03-08T12:20:29.396Z,55.56
2019-03-08T12:21:40.689Z,55.72
2019-03-08T12:22:55.187Z,55.77
2019-03-08T12:24:08.892Z,56.75
2019-03-08T12:25:19.828Z,57.16
2019-03-08T12:26:31.538Z,58.10
2019-03-08T12:27:57.789Z,58.28
2019-03-08T12:29:05.680Z,59.46
2019-03-08T12:30:15.985Z,59.98
2019-03-08T12:31:39.018Z,60.69
2019-03-08T12:32:58.729Z,60.46
2019-03-08T12:34:23.312Z,60.63
2019-03-08T12:36:14.655Z,60.96
2019-03-08T12:37:31.784Z,60.96
2019-03-08T12:38:44.584Z,61.08
2019-03-08T12:40:05.705Z,61.29
2019-03-08T12:41:22.230Z,61.23
2019-03-08T12:42:50.314Z,61.92
2019-03-08T12:44:17.556Z,60.56
2019-03-08T12:45:41.097Z,60.70
2019-03-08T12:46:49.929Z,60.31
2019-03-08T12:47:59.670Z,60.28
2019-03-08T12:49:11.337Z,59.85
2019-03-08T12:50:22.665Z,59.88
2019-03-08T12:51:47.745Z,59.80
2019-03-08T12:53:12.412Z,59.91
2019-03-08T12:54:31.590Z,60.11
2019-03-08T12:55:37.857Z,60.19
2019-03-08T12:56:43.544Z,60.03
2019-03-08T12:58:02.550Z,59.97
2019-03-08T12:59:27.076Z,60.11
2019-03-08T13:00:49.889Z,60.40
2019-03-08T13:02:11.157Z,60.59
2019-03-08T13:03:22.756Z,60.80
2019-03-08T13:04:36.590Z,61.24
2019-03-08T13:05:53.457Z,61.24
2019-03-08T13:07:19.470Z,61.05
2019-03-08T13:08:36.370Z,60.73
2019-03-08T13:09:47.850Z,60.60
2019-03-08T13:10:54.397Z,60.87
2019-03-08T13:12:02.429Z,60.97
2019-03-08T13:13:13.134Z,61.87
2019-03-08T13:14:21.764Z,61.70
2019-03-08T13:15:34.729Z,61.02
2019-03-08T13:16:42.152Z,61.81
2019-03-08T13:17:49.930Z,61.79
2019-03-08T13:18:56.197Z,61.76
2019-03-08T13:20:03.137Z,61.43
2019-03-08T13:21:11.437Z,61.34
2019-03-08T13:22:17.717Z,60.87
2019-03-08T13:23:23.951Z,61.06
2019-03-08T13:24:30.910Z,60.68
2019-03-08T13:25:37.111Z,60.37
2019-03-08T13:26:44.500Z,60.42
2019-03-08T13:27:52.522Z,60.13
2019-03-08T13:28:58.594Z,59.07
2019-03-08T13:30:16.238Z,59.50
2019-03-08T13:31:22.920Z,59.15
2019-03-08T13:32:29.350Z,59.45
2019-03-08T13:33:35.250Z,58.21
2019-03-08T13:34:42.977Z,58.58
2019-03-08T13:35:50.580Z,58.64
2019-03-08T13:36:59.079Z,58.03
2019-03-08T13:38:06.950Z,58.40
2019-03-08T13:39:14.631Z,58.55
2019-03-08T13:40:21.054Z,58.55
2019-03-08T13:41:28.480Z,58.62
2019-03-08T13:42:35.091Z,58.76
2019-03-08T13:43:43.111Z,59.13
2019-03-08T13:44:51.160Z,59.03
2019-03-08T13:45:57.231Z,59.10
2019-03-08T13:47:05.311Z,59.35
2019-03-08T13:48:13.999Z,59.82
2019-03-08T13:49:20.798Z,60.25
2019-03-08T13:50:26.884Z,60.30
2019-03-08T13:51:33.206Z,60.48
2019-03-08T13:52:40.247Z,60.78
2019-03-08T13:53:47.012Z,60.73
2019-03-08T13:54:53.713Z,61.12
2019-03-08T13:56:02.133Z,61.12
2019-03-08T13:57:11.517Z,61.48
2019-03-08T13:58:18.752Z,61.24
2019-03-08T13:59:25.681Z,61.25
2019-03-08T14:00:34.413Z,61.27
2019-03-08T14:01:41.771Z,61.49
2019-03-08T14:02:48.791Z,61.96
2019-03-08T14:03:55.352Z,62.05
2019-03-08T14:05:01.924Z,62.72
2019-03-08T14:06:08.418Z,63.55
2019-03-08T14:07:16.579Z,64.41
2019-03-08T14:08:22.914Z,62.89
2019-03-08T14:09:30.153Z,61.60
2019-03-08T14:10:37.978Z,58.97
2019-03-08T14:11:44.459Z,58.01
2019-03-08T14:12:51.011Z,56.82
2019-03-08T14:13:57.819Z,56.49
2019-03-08T14:15:04.259Z,56.58
2019-03-08T14:16:11.512Z,57.13
2019-03-08T14:17:19.622Z,57.72
2019-03-08T14:18:25.719Z,58.98
2019-03-08T14:19:32.680Z,60.16
2019-03-08T14:20:38.940Z,61.42
2019-03-08T14:21:45.152Z,62.77
2019-03-08T14:22:51.561Z,64.23
2019-03-08T14:23:58.560Z,64.67
2019-03-08T14:25:04.932Z,63.15
2019-03-08T14:26:11.320Z,62.29
2019-03-08T14:27:18.113Z,61.04
2019-03-08T14:28:25.345Z,59.62
2019-03-08T14:29:32.120Z,58.09
2019-03-08T14:30:58.274Z,56.74
2019-03-08T14:32:05.179Z,56.95
2019-03-08T14:33:13.681Z,57.77
2019-03-08T14:34:20.859Z,57.90
2019-03-08T14:35:29.803Z,58.14
2019-03-08T14:36:47.977Z,58.70
2019-03-08T14:37:56.054Z,59.22
2019-03-08T14:39:07.975Z,59.80
2019-03-08T14:40:20.735Z,60.29
2019-03-08T14:41:35.379Z,60.45
2019-03-08T14:42:46.213Z,60.79
2019-03-08T14:44:11.773Z,61.97
2019-03-08T14:45:23.019Z,62.03
2019-03-08T14:46:31.120Z,62.47
2019-03-08T14:47:37.794Z,63.90
2019-03-08T14:48:46.397Z,64.02
2019-03-08T14:49:55.214Z,61.79
2019-03-08T14:51:00.029Z,59.18
2019-03-08T14:52:07.072Z,57.49
2019-03-08T14:53:13.601Z,56.11
2019-03-08T14:54:20.194Z,56.25
2019-03-08T14:55:27.560Z,56.66
2019-03-08T14:56:35.910Z,56.97
2019-03-08T14:57:42.261Z,57.51
2019-03-08T14:58:48.460Z,57.66
2019-03-08T14:59:54.921Z,58.35
2019-03-08T15:01:02.198Z,59.07
2019-03-08T15:02:13.707Z,59.40
2019-03-08T15:03:20.201Z,59.42
2019-03-08T15:04:29.486Z,59.81
2019-03-08T15:05:34.734Z,59.93
2019-03-08T15:06:41.340Z,59.84
2019-03-08T15:07:47.749Z,59.77
2019-03-08T15:08:55.037Z,59.95
2019-03-08T15:10:06.193Z,60.20
2019-03-08T15:11:11.780Z,60.48
2019-03-08T15:12:18.202Z,60.67
2019-03-08T15:13:25.845Z,60.82